KWST/WST METAR and TAF weather

Enter ICAO airport designator
Station Type Date Time Source
KWST METAR 2019/05/20 10:53 UTC NOAA

KWST 201053Z AUTO 22012G17KT 7SM OVC004 17/16 A2986 RMK AO2 SLP109 T01670161


Station Type Date Time Source
KWST Decoded METAR 2019/05/20 10:53 UTC NOAA

WESTERLY STATE AIRPORT, RI, United States (KWST) 41-21N 071-48W 21M
May 20, 2019 - 06:53 AM EDT / 2019.05.20 1053 UTC
Wind: from the SW (220 degrees) at 14 MPH (12 KT) gusting to 20 MPH (17 KT):0
Visibility: 7 mile(s):0
Sky conditions: overcast
Temperature: 62.1 F (16.7 C)
Dew Point: 61.0 F (16.1 C)
Relative Humidity: 96%
Pressure (altimeter): 29.86 in. Hg (1011 hPa)
ob: KWST 201053Z AUTO 22012G17KT 7SM OVC004 17/16 A2986 RMK AO2 SLP109 T01670161
cycle: 11

Station Type Date Time Source
KWST TAF UTC NOAA

Error!

Example: see airport list